Time;durP1;ratioP1;P1;durP2;ratioP2;P2;SDS_P1;SDS_P2;PMS_P1;PMS_P2;Temp;Humidity;BMP_temperature;BMP_pressure;BME280_temperature;BME280_humidity;BME280_pressure;Samples;Min_cycle;Max_cycle;Signal;HPM_P1;HPM_P2
2021/04/28 00:01:47;;;;;;;8.93;7.67;;;;;;;12.10;46.78;95190.56;5073968;28;20224;-59
2021/04/28 00:04:13;;;;;;;9.17;7.27;;;;;;;12.19;45.99;95185.56;5074306;28;20175;-61
2021/04/28 00:06:38;;;;;;;9.13;8.23;;;;;;;12.21;46.33;95189.50;5074292;28;20696;-61
2021/04/28 00:09:05;;;;;;;8.00;7.20;;;;;;;12.01;45.88;95184.22;5054656;28;20249;-59
2021/04/28 00:11:31;;;;;;;10.40;7.43;;;;;;;12.17;47.16;95180.53;5062979;28;20179;-59
2021/04/28 00:13:56;;;;;;;7.90;7.10;;;;;;;11.99;47.60;95183.69;5074047;28;20894;-59
2021/04/28 00:16:22;;;;;;;11.93;7.73;;;;;;;11.98;48.22;95189.22;5072692;28;20171;-59
2021/04/28 00:18:48;;;;;;;8.27;7.43;;;;;;;12.10;46.72;95182.66;5073076;28;20712;-60
2021/04/28 00:21:14;;;;;;;8.20;7.40;;;;;;;12.06;46.61;95181.63;5074110;28;20666;-59
2021/04/28 00:23:40;;;;;;;8.83;7.97;;;;;;;11.91;47.29;95178.19;5056384;28;20417;-59
2021/04/28 00:26:06;;;;;;;9.50;7.70;;;;;;;12.03;47.02;95181.34;5053923;28;20261;-61
2021/04/28 00:28:31;;;;;;;9.83;7.73;;;;;;;11.97;46.22;95174.50;5053237;28;20762;-61
2021/04/28 00:30:56;;;;;;;10.47;7.30;;;;;;;11.96;46.66;95180.81;5053755;28;20163;-61
2021/04/28 00:33:22;;;;;;;8.37;7.23;;;;;;;11.92;45.51;95174.50;5053795;28;20521;-59
2021/04/28 00:35:47;;;;;;;8.73;6.80;;;;;;;11.82;45.73;95177.91;5053830;28;20190;-61
2021/04/28 00:38:12;;;;;;;7.13;6.30;;;;;;;11.66;44.88;95170.25;5068848;28;20202;-59
2021/04/28 00:40:40;;;;;;;8.77;7.23;;;;;;;11.69;45.41;95178.44;5055926;28;20254;-61
2021/04/28 00:43:05;;;;;;;7.80;7.00;;;;;;;11.78;45.06;95170.78;5053542;28;20175;-61
2021/04/28 00:45:33;;;;;;;7.80;7.10;;;;;;;11.78;44.93;95162.91;5053912;28;20764;-61
2021/04/28 00:48:00;;;;;;;7.20;6.13;;;;;;;11.78;45.22;95160.28;5053295;28;20164;-59
2021/04/28 00:50:47;;;;;;;7.67;6.97;;;;;;;11.81;45.26;95160.53;5053432;28;20434;-61
2021/04/28 00:53:15;;;;;;;8.40;7.50;;;;;;;11.90;44.52;95169.47;5068822;28;20472;-59
2021/04/28 00:55:42;;;;;;;8.90;8.00;;;;;;;11.95;44.51;95158.19;5053794;28;20394;-59
2021/04/28 00:58:07;;;;;;;7.50;6.50;;;;;;;11.92;45.21;95148.97;5053236;28;20449;-59
2021/04/28 01:00:33;;;;;;;8.30;6.70;;;;;;;11.86;45.01;95155.28;5053407;28;20475;-61
2021/04/28 01:02:59;;;;;;;8.37;7.07;;;;;;;11.96;44.26;95152.66;5053634;28;20163;-59
2021/04/28 01:05:25;;;;;;;8.73;7.17;;;;;;;11.90;45.49;95155.56;5054310;28;20871;-60
2021/04/28 01:07:51;;;;;;;8.17;7.10;;;;;;;12.04;44.72;95146.88;5065658;28;20583;-61
2021/04/28 01:10:22;;;;;;;8.03;7.23;;;;;;;12.01;44.58;95147.38;5073368;28;20214;-59
2021/04/28 01:12:48;;;;;;;9.10;7.20;;;;;;;12.09;45.10;95149.50;5073192;28;20748;-64
2021/04/28 01:15:17;;;;;;;7.00;6.40;;;;;;;12.07;44.75;95145.53;5053193;28;20501;-61
2021/04/28 01:17:43;;;;;;;7.80;7.00;;;;;;;12.10;44.30;95145.03;5052967;28;20904;-59
2021/04/28 01:20:11;;;;;;;7.03;6.33;;;;;;;12.11;43.85;95143.94;5053283;28;20441;-60
2021/04/28 01:22:40;;;;;;;8.30;7.47;;;;;;;12.09;44.59;95140.78;5064697;28;20424;-59
2021/04/28 01:25:09;;;;;;;9.13;8.23;;;;;;;12.11;45.17;95141.31;5073448;28;20402;-60
2021/04/28 01:27:37;;;;;;;7.80;7.00;;;;;;;12.09;45.18;95135.53;5072882;28;20401;-59
2021/04/28 01:30:05;;;;;;;12.60;7.20;;;;;;;12.16;45.20;95143.94;5073112;28;20424;-61
2021/04/28 01:32:32;;;;;;;7.57;6.50;;;;;;;12.06;44.47;95136.88;5073407;28;20835;-61
2021/04/28 01:34:58;;;;;;;9.13;7.47;;;;;;;12.00;43.42;95132.66;5071866;28;20503;-60
2021/04/28 01:37:25;;;;;;;8.43;7.33;;;;;;;11.89;44.95;95140.81;5059426;28;20561;-59
2021/04/28 01:39:52;;;;;;;7.20;6.50;;;;;;;11.98;44.75;95142.66;5069392;28;20628;-61
2021/04/28 01:42:18;;;;;;;11.10;7.20;;;;;;;12.06;44.24;95144.75;5062247;28;20432;-61
2021/04/28 01:44:46;;;;;;;8.50;7.10;;;;;;;11.92;43.99;95148.97;5052779;28;20926;-60
2021/04/28 01:47:13;;;;;;;13.13;7.40;;;;;;;11.88;45.06;95147.13;5071602;28;20428;-60
2021/04/28 01:49:41;;;;;;;7.73;7.00;;;;;;;11.83;44.56;95141.88;5074990;28;20432;-61
2021/04/28 01:52:07;;;;;;;8.30;7.40;;;;;;;11.76;43.98;95136.84;5077004;28;20751;-59
2021/04/28 01:54:33;;;;;;;9.30;7.40;;;;;;;11.94;45.06;95138.97;5060562;28;20422;-59
2021/04/28 01:56:59;;;;;;;8.23;7.43;;;;;;;12.08;44.92;95136.59;5058370;28;20424;-66
2021/04/28 01:59:25;;;;;;;10.00;7.60;;;;;;;12.08;44.60;95136.59;5056754;28;20191;-59
2021/04/28 02:01:53;;;;;;;10.27;8.03;;;;;;;12.08;44.62;95132.09;5056862;28;20412;-60
2021/04/28 02:04:19;;;;;;;7.87;6.67;;;;;;;12.09;45.02;95127.63;5066329;28;20174;-61
2021/04/28 02:06:45;;;;;;;7.63;6.83;;;;;;;12.06;45.19;95126.34;5076702;28;20405;-59
2021/04/28 02:09:11;;;;;;;8.33;7.43;;;;;;;12.01;45.62;95128.19;5076248;28;20486;-59
2021/04/28 02:11:36;;;;;;;8.97;7.40;;;;;;;11.92;46.02;95130.53;5069741;28;20183;-59
2021/04/28 02:14:03;;;;;;;7.70;7.00;;;;;;;11.84;46.80;95125.81;5055421;28;20520;-61
2021/04/28 02:16:31;;;;;;;7.80;7.00;;;;;;;11.96;46.48;95123.69;5056685;28;20185;-61
2021/04/28 02:19:02;;;;;;;8.20;7.40;;;;;;;12.03;45.71;95129.47;5057006;28;20492;-59
2021/04/28 02:21:27;;;;;;;7.70;6.90;;;;;;;11.99;45.96;95123.16;5055261;28;20829;-61
2021/04/28 02:23:53;;;;;;;8.27;7.37;;;;;;;12.03;46.23;95123.44;5056540;28;20398;-59
2021/04/28 02:26:19;;;;;;;7.90;7.20;;;;;;;11.89;45.87;95123.16;5068244;28;20652;-61
2021/04/28 02:28:44;;;;;;;8.50;7.40;;;;;;;11.69;46.17;95120.53;5075900;28;20431;-61
2021/04/28 02:31:09;;;;;;;7.10;6.40;;;;;;;11.53;46.13;95118.94;5076229;28;20171;-61
2021/04/28 02:33:36;;;;;;;8.17;7.20;;;;;;;11.36;47.13;95119.16;5073624;28;20641;-61
2021/04/28 02:36:02;;;;;;;8.00;7.20;;;;;;;11.29;46.71;95117.81;5056380;28;20163;-61
2021/04/28 02:38:38;;;;;;;7.73;6.97;;;;;;;11.49;46.23;95109.16;5055743;28;20948;-61
2021/04/28 02:41:05;;;;;;;9.17;6.83;;;;;;;11.66;45.68;95115.00;5056324;28;20496;-61
2021/04/28 02:43:32;;;;;;;12.43;8.00;;;;;;;11.63;46.33;95111.03;5055928;28;20414;-60
2021/04/28 02:46:00;;;;;;;7.60;7.00;;;;;;;11.43;48.20;95113.66;5056194;28;20406;-61
2021/04/28 02:48:26;;;;;;;7.60;6.80;;;;;;;11.38;47.98;95119.69;5058662;28;20416;-61
2021/04/28 02:50:53;;;;;;;8.13;7.30;;;;;;;11.31;48.03;95116.53;5075893;28;20884;-59
2021/04/28 02:53:20;;;;;;;10.50;7.30;;;;;;;11.39;48.48;95117.84;5076005;28;20413;-61
2021/04/28 02:55:46;;;;;;;11.33;7.43;;;;;;;11.38;48.65;95111.00;5075827;28;20774;-59
2021/04/28 02:58:12;;;;;;;9.60;8.00;;;;;;;11.39;48.87;95112.59;5075367;28;20452;-60
2021/04/28 03:00:38;;;;;;;8.10;7.30;;;;;;;11.28;49.46;95116.25;5063077;28;20689;-59
2021/04/28 03:03:04;;;;;;;9.27;7.17;;;;;;;11.34;49.07;95109.97;5057824;28;20430;-61
2021/04/28 03:05:29;;;;;;;8.93;7.57;;;;;;;11.17;49.11;95106.78;5069247;28;20971;-61
2021/04/28 03:07:56;;;;;;;9.10;7.40;;;;;;;10.92;49.55;95109.34;5075306;28;20198;-61
2021/04/28 03:10:22;;;;;;;8.90;7.33;;;;;;;11.11;50.33;95102.53;5075747;28;20256;-59
2021/04/28 03:12:47;;;;;;;8.13;7.20;;;;;;;11.10;50.05;95107.03;5074591;28;20776;-61
2021/04/28 03:15:15;;;;;;;9.17;8.10;;;;;;;11.02;50.16;95107.53;5075908;28;20412;-59
2021/04/28 03:17:41;;;;;;;10.23;6.93;;;;;;;11.06;50.23;95099.91;5074953;28;20182;-61
2021/04/28 03:20:08;;;;;;;9.50;6.63;;;;;;;10.95;50.14;95100.94;5057951;28;20444;-61
2021/04/28 03:22:35;;;;;;;9.37;8.47;;;;;;;10.88;50.50;95100.38;5055483;28;20500;-59
2021/04/28 03:25:00;;;;;;;9.20;8.27;;;;;;;10.69;50.53;95101.91;5055526;28;20456;-61
2021/04/28 03:27:26;;;;;;;8.43;7.63;;;;;;;10.66;50.82;95094.53;5067049;28;20955;-61
2021/04/28 03:29:52;;;;;;;8.43;7.53;;;;;;;10.79;51.75;95094.84;5075127;28;20218;-61
2021/04/28 03:32:18;;;;;;;8.00;7.20;;;;;;;10.74;51.59;95107.16;5075212;28;20174;-61
2021/04/28 03:34:43;;;;;;;9.50;8.07;;;;;;;10.40;53.46;95100.72;5057642;28;20418;-61
2021/04/28 03:37:09;;;;;;;11.13;8.87;;;;;;;10.53;52.51;95098.41;5053407;28;20175;-61
2021/04/28 03:39:35;;;;;;;9.63;7.87;;;;;;;10.60;52.05;95098.97;5054887;28;20255;-59
2021/04/28 03:42:01;;;;;;;9.00;8.10;;;;;;;10.56;51.57;95105.00;5055102;28;20177;-61
2021/04/28 03:44:26;;;;;;;9.47;8.27;;;;;;;10.48;51.32;95105.47;5054934;28;20644;-60
2021/04/28 03:46:52;;;;;;;9.27;8.37;;;;;;;10.68;52.53;95102.94;5054662;28;20407;-59
2021/04/28 03:49:18;;;;;;;8.77;7.23;;;;;;;10.67;50.67;95109.25;5069005;28;20661;-61
2021/04/28 03:51:44;;;;;;;8.43;7.60;;;;;;;10.72;51.68;95106.63;5074991;28;20461;-61
2021/04/28 03:54:10;;;;;;;8.93;8.03;;;;;;;10.55;51.57;95111.28;5073975;28;20223;-58
2021/04/28 03:56:36;;;;;;;9.87;8.00;;;;;;;10.53;52.69;95103.66;5054815;28;20209;-61
2021/04/28 03:59:03;;;;;;;9.83;8.83;;;;;;;10.62;51.76;95107.38;5054122;28;20548;-61
2021/04/28 04:01:28;;;;;;;9.00;8.17;;;;;;;10.69;52.17;95113.19;5054651;28;20168;-61
2021/04/28 04:03:54;;;;;;;8.53;7.73;;;;;;;10.53;52.64;95111.53;5066673;28;20477;-59
2021/04/28 04:06:19;;;;;;;8.57;7.47;;;;;;;10.42;52.21;95112.53;5069683;28;20182;-60
2021/04/28 04:08:44;;;;;;;10.77;8.47;;;;;;;10.42;52.53;95115.16;5054077;28;20557;-61
2021/04/28 04:11:10;;;;;;;9.13;8.07;;;;;;;10.41;52.61;95113.59;5054011;28;20202;-59
2021/04/28 04:13:35;;;;;;;8.83;7.40;;;;;;;10.46;52.71;95104.94;5054365;28;20175;-61
2021/04/28 04:16:01;;;;;;;8.90;8.10;;;;;;;10.40;52.85;95109.38;5054621;28;20569;-59
2021/04/28 04:18:26;;;;;;;9.13;8.13;;;;;;;10.48;52.32;95108.91;5060734;28;20206;-59
2021/04/28 04:20:52;;;;;;;11.00;7.80;;;;;;;10.31;53.16;95114.31;5074371;28;20626;-58
2021/04/28 04:23:17;;;;;;;9.33;7.80;;;;;;;10.47;52.77;95120.47;5065577;28;20175;-60
2021/04/28 04:25:43;;;;;;;9.20;7.63;;;;;;;10.48;53.11;95124.66;5052996;28;20178;-60
2021/04/28 04:28:08;;;;;;;10.10;8.63;;;;;;;10.51;52.85;95124.13;5053715;28;20166;-60
2021/04/28 04:30:34;;;;;;;12.47;8.50;;;;;;;10.53;53.15;95129.91;5053938;28;20210;-59
2021/04/28 04:32:59;;;;;;;9.80;8.23;;;;;;;10.43;52.98;95131.72;5059366;28;20501;-59
2021/04/28 04:35:24;;;;;;;10.43;9.10;;;;;;;10.27;53.44;95131.63;5054392;28;20298;-59
2021/04/28 04:37:50;;;;;;;10.23;8.83;;;;;;;10.35;52.51;95125.91;5072454;28;20698;-59
2021/04/28 04:40:16;;;;;;;9.43;8.30;;;;;;;10.19;52.56;95121.63;5073673;28;20187;-61
2021/04/28 04:42:42;;;;;;;13.70;8.23;;;;;;;10.24;52.28;95126.09;5073707;28;20217;-61
2021/04/28 04:45:08;;;;;;;11.90;8.23;;;;;;;10.20;52.04;95125.81;5073796;28;20177;-61
2021/04/28 04:47:33;;;;;;;9.47;7.90;;;;;;;10.22;52.68;95122.91;5072618;28;20972;-60
2021/04/28 04:49:59;;;;;;;8.97;8.17;;;;;;;10.21;52.46;95122.16;5053752;28;20510;-61
2021/04/28 04:52:24;;;;;;;9.17;8.17;;;;;;;10.15;53.09;95123.16;5069390;28;20192;-61
2021/04/28 04:54:50;;;;;;;9.23;7.87;;;;;;;10.24;52.71;95120.84;5073774;28;20182;-59
2021/04/28 04:57:15;;;;;;;8.20;7.40;;;;;;;10.34;52.19;95132.19;5073459;28;20181;-59
2021/04/28 04:59:41;;;;;;;8.77;7.97;;;;;;;10.37;52.40;95125.63;5073566;28;20216;-59
2021/04/28 05:02:06;;;;;;;9.70;7.83;;;;;;;10.50;52.35;95127.03;5073858;28;20223;-59
2021/04/28 05:04:32;;;;;;;12.03;8.70;;;;;;;10.68;51.69;95127.38;5055568;28;20577;-61
2021/04/28 05:06:57;;;;;;;10.50;8.60;;;;;;;10.73;51.62;95122.13;5053514;28;20178;-60
2021/04/28 05:09:22;;;;;;;13.97;9.07;;;;;;;10.77;51.80;95122.41;5053353;28;20195;-61
2021/04/28 05:11:48;;;;;;;9.17;7.97;;;;;;;10.76;52.23;95124.25;5053398;28;20176;-61
2021/04/28 05:14:14;;;;;;;9.97;8.93;;;;;;;10.80;52.79;95133.19;5053459;28;20168;-61
2021/04/28 05:16:39;;;;;;;10.07;9.10;;;;;;;10.74;52.31;95131.63;5053425;28;20181;-60
2021/04/28 05:19:05;;;;;;;14.27;9.13;;;;;;;10.79;52.38;95134.25;5056241;28;20212;-61
2021/04/28 05:21:30;;;;;;;12.20;8.90;;;;;;;10.94;52.76;95129.03;5053704;28;20632;-61
2021/04/28 05:23:56;;;;;;;9.70;8.30;;;;;;;10.98;52.67;95131.97;5060772;28;20586;-61
2021/04/28 05:26:21;;;;;;;11.97;9.50;;;;;;;11.12;52.62;95131.19;5060830;28;20185;-61
2021/04/28 05:28:47;;;;;;;10.00;8.67;;;;;;;11.24;52.45;95134.41;5072834;28;20280;-60
2021/04/28 05:31:12;;;;;;;15.30;9.80;;;;;;;11.34;52.79;95137.03;5073300;28;20177;-60
2021/04/28 05:33:37;;;;;;;10.20;9.17;;;;;;;11.38;53.06;95132.03;5069594;28;20627;-61
2021/04/28 05:36:04;;;;;;;9.80;8.80;;;;;;;11.34;53.25;95129.16;5053115;28;20191;-61
2021/04/28 05:38:29;;;;;;;10.67;9.30;;;;;;;11.40;53.46;95128.13;5057598;28;20625;-61
2021/04/28 05:40:55;;;;;;;13.30;10.30;;;;;;;11.53;52.75;95129.44;5055343;28;20453;-60
2021/04/28 05:43:21;;;;;;;10.00;9.03;;;;;;;11.63;53.20;95129.44;5073154;28;20201;-59
2021/04/28 05:45:46;;;;;;;9.80;8.80;;;;;;;11.68;52.77;95126.88;5073197;28;20178;-61
2021/04/28 05:48:13;;;;;;;10.40;9.27;;;;;;;11.74;52.91;95130.28;5060658;28;20175;-59
2021/04/28 05:50:40;;;;;;;14.70;10.37;;;;;;;11.82;52.51;95129.75;5052830;28;20689;-59
2021/04/28 05:53:08;;;;;;;10.70;9.70;;;;;;;11.91;52.69;95133.44;5053093;28;20406;-62
2021/04/28 05:55:34;;;;;;;12.77;10.40;;;;;;;11.95;52.84;95135.28;5053558;28;20756;-61
2021/04/28 05:57:59;;;;;;;12.33;9.23;;;;;;;12.01;52.65;95128.94;5072844;28;20547;-61
2021/04/28 06:00:25;;;;;;;13.73;10.70;;;;;;;12.10;52.07;95131.84;5072911;28;20496;-61
2021/04/28 06:02:51;;;;;;;14.20;10.40;;;;;;;12.19;52.00;95130.25;5059818;28;20216;-61
2021/04/28 06:05:16;;;;;;;10.57;9.47;;;;;;;12.29;52.02;95135.50;5063633;28;20891;-61
2021/04/28 06:07:42;;;;;;;12.63;10.40;;;;;;;12.36;52.14;95130.75;5072482;28;20666;-62
2021/04/28 06:10:08;;;;;;;14.90;10.33;;;;;;;12.38;51.45;95126.00;5072682;28;20194;-61
2021/04/28 06:12:34;;;;;;;14.93;10.40;;;;;;;12.48;51.33;95128.63;5072959;28;20240;-61
2021/04/28 06:14:59;;;;;;;18.50;10.70;;;;;;;12.54;51.71;95127.53;5062255;28;20417;-59
2021/04/28 06:17:25;;;;;;;14.57;10.43;;;;;;;12.65;51.02;95130.94;5052367;28;20421;-60
2021/04/28 06:19:50;;;;;;;12.13;9.33;;;;;;;12.68;51.52;95125.13;5061644;28;20209;-62
2021/04/28 06:22:16;;;;;;;10.43;9.53;;;;;;;12.73;51.67;95120.66;5072753;28;20190;-61
2021/04/28 06:24:41;;;;;;;13.20;9.97;;;;;;;12.80;51.78;95128.25;5072695;28;20171;-60
2021/04/28 06:27:07;;;;;;;10.90;9.80;;;;;;;12.88;51.16;95130.34;5072441;28;20175;-62
2021/04/28 06:29:33;;;;;;;10.27;8.97;;;;;;;12.82;47.84;95119.03;5071847;28;20238;-62
2021/04/28 06:31:58;;;;;;;10.97;9.53;;;;;;;12.94;49.20;95127.41;5070893;28;20261;-62
2021/04/28 06:34:23;;;;;;;13.57;10.60;;;;;;;13.10;49.40;95126.31;5067467;28;20207;-62
2021/04/28 06:36:49;;;;;;;11.20;10.00;;;;;;;13.19;50.32;95126.50;5054951;28;20241;-61
2021/04/28 06:39:15;;;;;;;13.67;10.13;;;;;;;13.27;50.70;95128.59;5055581;28;20290;-60
2021/04/28 06:41:40;;;;;;;11.37;9.70;;;;;;;13.28;48.77;95128.31;5055966;28;20176;-62
2021/04/28 06:44:05;;;;;;;13.57;9.53;;;;;;;13.31;48.32;95130.44;5063723;28;20177;-60
2021/04/28 06:46:32;;;;;;;13.87;9.87;;;;;;;13.43;48.04;95128.22;5075984;28;20181;-60
2021/04/28 06:48:57;;;;;;;11.70;10.50;;;;;;;13.57;47.57;95122.34;5074149;28;20195;-60
2021/04/28 06:51:22;;;;;;;13.93;9.83;;;;;;;13.70;47.61;95126.97;5064751;28;20436;-60
2021/04/28 06:53:48;;;;;;;11.67;9.80;;;;;;;13.74;47.99;95126.16;5076209;28;20641;-58
2021/04/28 06:56:13;;;;;;;15.60;10.37;;;;;;;13.86;47.59;95125.84;5075802;28;20224;-58
2021/04/28 06:58:39;;;;;;;14.67;9.93;;;;;;;13.95;47.37;95129.47;5067408;28;20199;-62
2021/04/28 07:01:05;;;;;;;11.67;9.20;;;;;;;14.02;44.88;95122.75;5055904;28;20183;-60
2021/04/28 07:03:30;;;;;;;13.70;10.23;;;;;;;13.99;43.51;95123.34;5061413;28;20569;-61
2021/04/28 07:05:56;;;;;;;11.63;10.33;;;;;;;14.03;43.96;95123.56;5075184;28;20425;-60
2021/04/28 07:08:22;;;;;;;12.93;9.80;;;;;;;14.11;44.73;95115.81;5059811;28;20656;-59
2021/04/28 07:10:47;;;;;;;13.10;9.13;;;;;;;14.27;45.16;95127.09;5059185;28;20911;-60
2021/04/28 07:13:12;;;;;;;16.83;10.17;;;;;;;14.05;42.78;95129.34;5071584;28;20637;-60
2021/04/28 07:15:38;;;;;;;11.03;9.40;;;;;;;14.33;43.13;95123.34;5072643;28;20254;-61
2021/04/28 07:18:04;;;;;;;15.10;9.80;;;;;;;14.41;43.79;95123.50;5054544;28;20566;-59
2021/04/28 07:20:30;;;;;;;11.53;9.67;;;;;;;14.51;42.69;95125.25;5068243;28;20210;-61
2021/04/28 07:22:55;;;;;;;13.23;10.67;;;;;;;14.41;43.01;95123.50;5073953;28;20637;-62
2021/04/28 07:25:21;;;;;;;13.20;10.17;;;;;;;14.74;43.33;95123.69;5066542;28;20429;-65
2021/04/28 07:27:47;;;;;;;12.27;9.70;;;;;;;14.44;42.76;95132.72;5069119;28;20257;-60
2021/04/28 07:30:15;;;;;;;12.60;10.60;;;;;;;14.75;42.20;95127.88;5059594;28;20195;-61
2021/04/28 07:32:41;;;;;;;11.97;9.60;;;;;;;14.96;43.61;95127.41;5066109;28;20175;-61
2021/04/28 07:35:07;;;;;;;14.70;9.60;;;;;;;15.15;42.48;95128.19;5072367;28;20905;-61
2021/04/28 07:37:33;;;;;;;10.60;9.60;;;;;;;15.41;43.47;95128.69;5059383;28;20590;-61
2021/04/28 07:39:58;;;;;;;11.97;10.67;;;;;;;15.58;44.04;95128.97;5055723;28;20469;-61
2021/04/28 07:42:24;;;;;;;11.40;10.20;;;;;;;15.63;42.11;95128.91;5055115;28;20187;-61
2021/04/28 07:44:49;;;;;;;14.90;10.53;;;;;;;15.43;42.16;95127.34;5068846;28;20182;-65
2021/04/28 07:47:15;;;;;;;13.27;10.17;;;;;;;15.37;42.13;95122.34;5073899;28;20630;-65
2021/04/28 07:49:40;;;;;;;12.90;10.30;;;;;;;15.49;41.59;95132.56;5073119;28;20209;-66
2021/04/28 07:52:06;;;;;;;11.63;10.03;;;;;;;15.64;42.12;95130.47;5070795;28;20162;-66
2021/04/28 07:54:31;;;;;;;13.53;9.97;;;;;;;15.97;42.93;95128.66;5054542;28;20206;-61
2021/04/28 07:56:58;;;;;;;16.30;10.37;;;;;;;16.06;40.83;95133.00;5054310;28;20194;-61
2021/04/28 07:59:24;;;;;;;13.23;10.93;;;;;;;16.19;41.52;95126.97;5054518;28;20207;-60
2021/04/28 08:01:50;;;;;;;12.53;10.37;;;;;;;16.41;42.03;95126.31;5054556;28;20430;-67
2021/04/28 08:04:16;;;;;;;14.27;11.97;;;;;;;16.46;40.48;95131.53;5049763;28;20413;-66
2021/04/28 08:06:41;;;;;;;13.73;11.30;;;;;;;16.43;41.29;95124.94;5060286;28;20290;-66
2021/04/28 08:09:07;;;;;;;11.90;10.40;;;;;;;16.68;41.35;95125.59;5070430;28;20191;-63
2021/04/28 08:11:32;;;;;;;13.70;12.00;;;;;;;16.83;40.26;95123.41;5056262;28;20262;-67
2021/04/28 08:13:58;;;;;;;15.60;11.10;;;;;;;16.59;39.76;95124.69;5066129;28;20332;-64
2021/04/28 08:16:24;;;;;;;13.17;11.60;;;;;;;16.65;40.26;95134.91;5050775;28;20776;-66
2021/04/28 08:18:49;;;;;;;13.40;12.00;;;;;;;16.66;39.32;95133.84;5065688;28;20203;-63
2021/04/28 08:21:15;;;;;;;13.83;11.20;;;;;;;16.73;39.94;95128.13;5054026;28;20523;-64
2021/04/28 08:23:42;;;;;;;13.97;11.10;;;;;;;16.96;39.87;95127.16;5050580;28;20592;-66
2021/04/28 08:26:10;;;;;;;13.43;11.17;;;;;;;17.16;39.40;95130.19;5050021;28;20960;-64
2021/04/28 08:28:40;;;;;;;11.57;10.00;;;;;;;17.30;40.39;95127.53;5050089;28;20912;-61
2021/04/28 08:31:09;;;;;;;17.13;11.53;;;;;;;17.48;39.74;95128.50;5049631;28;20422;-62
2021/04/28 08:33:35;;;;;;;12.50;10.60;;;;;;;17.64;40.61;95122.56;5052627;28;20453;-60
2021/04/28 08:36:01;;;;;;;11.30;9.93;;;;;;;17.86;40.68;95119.94;5057146;28;20455;-62
2021/04/28 08:38:26;;;;;;;12.00;9.60;;;;;;;18.02;40.08;95126.47;5064485;28;20496;-60
2021/04/28 08:40:52;;;;;;;12.90;10.00;;;;;;;18.15;39.68;95125.59;5053936;28;20184;-62
2021/04/28 08:43:21;;;;;;;11.87;10.27;;;;;;;18.19;39.00;95120.47;5050266;28;20652;-60
2021/04/28 08:45:47;;;;;;;11.53;10.33;;;;;;;18.26;38.35;95118.16;5050278;28;20171;-61
2021/04/28 08:48:12;;;;;;;16.63;12.27;;;;;;;18.03;38.21;95120.03;5052542;28;20421;-62
2021/04/28 08:50:38;;;;;;;15.00;11.13;;;;;;;18.17;37.59;95118.09;5068249;28;20293;-60
2021/04/28 08:53:04;;;;;;;14.13;12.40;;;;;;;18.27;35.84;95117.84;5063690;28;20205;-60
2021/04/28 08:55:29;;;;;;;15.00;10.77;;;;;;;18.52;36.10;95113.78;5072280;28;20163;-59
2021/04/28 08:57:55;;;;;;;14.30;10.93;;;;;;;18.45;35.89;95108.91;5072186;28;20432;-60
2021/04/28 09:00:20;;;;;;;14.63;11.97;;;;;;;18.63;37.57;95107.09;5066617;28;20199;-59
2021/04/28 09:02:59;;;;;;;14.10;11.20;;;;;;;18.69;37.04;95108.56;5053357;28;20225;-59
2021/04/28 09:05:25;;;;;;;12.93;11.47;;;;;;;18.98;36.25;95100.81;5053439;28;20607;-60
2021/04/28 09:07:50;;;;;;;11.43;9.87;;;;;;;19.11;36.37;95107.13;5053930;28;20491;-59
2021/04/28 09:10:18;;;;;;;13.30;11.77;;;;;;;19.14;35.83;95106.50;5056410;28;20236;-60
2021/04/28 09:13:05;;;;;;;12.40;10.27;;;;;;;18.78;34.12;95105.91;5053408;28;20182;-59
2021/04/28 09:15:45;;;;;;;19.90;13.63;;;;;;;18.06;33.95;95114.09;5064593;28;20432;-59
2021/04/28 09:18:16;;;;;;;12.50;11.23;;;;;;;18.79;34.25;95107.50;5053090;28;20461;-60
2021/04/28 09:20:48;;;;;;;12.93;9.80;;;;;;;19.04;33.27;95101.47;5059568;28;20462;-60
2021/04/28 09:23:17;;;;;;;11.73;10.33;;;;;;;19.33;34.81;95107.06;5067320;28;20428;-60
2021/04/28 09:25:43;;;;;;;14.43;11.30;;;;;;;19.45;36.78;95107.22;5073277;28;20773;-60
2021/04/28 09:28:36;;;;;;;13.47;11.10;;;;;;;19.53;38.45;95108.31;5072828;28;20405;-60
2021/04/28 09:31:07;;;;;;;11.70;9.70;;;;;;;19.83;37.55;95110.84;5073247;28;20408;-60
2021/04/28 09:33:54;;;;;;;14.50;11.23;;;;;;;19.97;34.78;95106.13;5073353;28;20484;-60
2021/04/28 09:36:38;;;;;;;11.03;9.33;;;;;;;19.99;32.54;95095.94;5072715;28;20393;-61
2021/04/28 09:39:07;;;;;;;13.03;10.37;;;;;;;19.80;33.96;95100.03;5055330;28;20507;-59
2021/04/28 09:41:47;;;;;;;11.43;9.40;;;;;;;20.07;33.93;95097.81;5059232;28;20475;-60
2021/04/28 09:44:18;;;;;;;12.83;10.00;;;;;;;20.21;34.28;95095.78;5052864;28;20413;-61
2021/04/28 09:47:09;;;;;;;11.10;9.20;;;;;;;20.40;34.64;95100.72;5052789;28;20788;-59
2021/04/28 09:49:55;;;;;;;14.40;9.67;;;;;;;20.68;34.08;95088.56;5052697;28;20809;-60
2021/04/28 09:52:21;;;;;;;10.10;8.60;;;;;;;20.75;33.80;95088.84;5061457;28;20416;-62
2021/04/28 09:54:50;;;;;;;9.83;8.83;;;;;;;20.91;33.59;95089.88;5060761;28;20448;-59
2021/04/28 09:57:18;;;;;;;10.87;9.73;;;;;;;21.03;33.33;95086.56;5052649;28;20428;-71
2021/04/28 09:59:48;;;;;;;10.63;8.43;;;;;;;21.20;31.27;95086.44;5053802;28;20458;-74
2021/04/28 10:02:26;;;;;;;12.00;9.93;;;;;;;21.35;31.13;95088.56;5058097;28;20768;-68
2021/04/28 10:04:52;;;;;;;11.43;10.17;;;;;;;21.07;29.90;95088.25;5073014;28;20404;-70
2021/04/28 10:07:27;;;;;;;10.60;9.50;;;;;;;21.40;30.73;95081.13;5072297;28;20498;-64
2021/04/28 10:09:54;;;;;;;12.97;9.10;;;;;;;20.87;30.75;95085.50;5072225;28;20435;-66
2021/04/28 10:12:21;;;;;;;13.60;8.53;;;;;;;20.67;29.23;95081.66;5076417;28;20508;-66
2021/04/28 10:14:47;;;;;;;9.90;8.90;;;;;;;20.52;28.88;95084.84;5076634;28;20470;-65
2021/04/28 10:17:16;;;;;;;10.53;8.63;;;;;;;20.88;30.29;95081.72;5070584;28;20912;-69
2021/04/28 10:19:41;;;;;;;10.53;7.67;;;;;;;20.96;30.43;95078.22;5061856;28;20477;-66
2021/04/28 10:22:17;;;;;;;8.47;7.27;;;;;;;21.25;30.83;95068.34;5076039;28;20416;-64
2021/04/28 10:24:48;;;;;;;11.30;7.23;;;;;;;21.58;28.09;95073.00;5068362;28;20644;-69
2021/04/28 10:27:17;;;;;;;7.87;7.07;;;;;;;21.81;30.25;95061.66;5072519;28;20793;-69
2021/04/28 10:29:44;;;;;;;7.50;6.43;;;;;;;21.93;26.49;95055.56;5056816;28;20437;-69
2021/04/28 10:32:13;;;;;;;6.17;5.67;;;;;;;22.00;28.07;95067.31;5056203;28;20420;-68
2021/04/28 10:34:49;;;;;;;8.13;7.33;;;;;;;21.31;26.51;95066.25;5072634;28;20480;-69
2021/04/28 10:37:14;;;;;;;8.90;8.00;;;;;;;20.96;27.00;95065.63;5056153;28;20804;-64
2021/04/28 10:39:40;;;;;;;9.60;7.50;;;;;;;21.03;27.34;95062.50;5061394;28;20465;-66
2021/04/28 10:42:30;;;;;;;9.70;6.80;;;;;;;21.39;26.55;95054.72;5069238;28;20182;-63
2021/04/28 10:44:55;;;;;;;7.97;7.17;;;;;;;21.59;26.10;95058.50;5071052;28;20190;-69
2021/04/28 10:47:39;;;;;;;9.40;7.67;;;;;;;21.83;25.14;95059.41;5067453;28;20428;-64
2021/04/28 10:50:09;;;;;;;8.47;6.60;;;;;;;21.97;25.25;95046.56;5073619;28;20199;-63
2021/04/28 10:52:40;;;;;;;7.87;7.17;;;;;;;22.42;26.43;95054.59;5073062;28;20417;-69
2021/04/28 10:55:06;;;;;;;6.40;5.80;;;;;;;21.78;22.93;95056.94;5072433;28;20428;-65
2021/04/28 10:57:37;;;;;;;5.50;5.10;;;;;;;21.90;23.81;95049.00;5055923;28;20425;-63
2021/04/28 11:00:20;;;;;;;5.83;5.23;;;;;;;21.50;24.03;95042.53;5055903;28;20944;-63
2021/04/28 11:02:47;;;;;;;6.13;4.60;;;;;;;21.91;23.61;95039.06;5057002;28;20487;-63
2021/04/28 11:05:29;;;;;;;4.47;4.07;;;;;;;22.65;26.97;95028.22;5075682;28;20490;-69
2021/04/28 11:07:57;;;;;;;5.70;5.00;;;;;;;23.04;27.11;95025.63;5067139;28;20421;-63
2021/04/28 11:10:30;;;;;;;6.10;5.47;;;;;;;23.52;26.36;95022.09;5054150;28;20777;-68
2021/04/28 11:13:02;;;;;;;6.50;5.90;;;;;;;23.91;25.81;95017.81;5055653;28;20414;-63
2021/04/28 11:15:48;;;;;;;5.77;5.23;;;;;;;24.15;25.40;95023.84;5060580;28;20498;-69
2021/04/28 11:18:35;;;;;;;7.57;6.20;;;;;;;24.52;24.34;95020.94;5074771;28;20460;-70
2021/04/28 11:21:26;;;;;;;8.20;6.50;;;;;;;24.63;24.74;95022.78;5074186;28;20405;-70
2021/04/28 11:24:11;;;;;;;5.73;5.07;;;;;;;24.82;22.95;95012.13;5064628;28;20905;-70
2021/04/28 11:26:50;;;;;;;7.10;6.40;;;;;;;24.72;22.91;95012.66;5059044;28;20509;-64
2021/04/28 11:29:17;;;;;;;7.00;6.33;;;;;;;24.44;22.76;95012.72;5062566;28;20467;-70